sensor_id;sensor_type;location;lat;lon;timestamp;pressure;altitude;pressure_sealevel;temperature;humidity
64078;BME280;51039;49.696;10.808;2024-02-14T00:00:01;98776.69;;;0.28;100.00
64078;BME280;51039;49.696;10.808;2024-02-14T00:02:27;98773.53;;;0.25;100.00
64078;BME280;51039;49.696;10.808;2024-02-14T00:04:53;98772.13;;;0.21;100.00
64078;BME280;51039;49.696;10.808;2024-02-14T00:07:18;98779.34;;;0.17;100.00
64078;BME280;51039;49.696;10.808;2024-02-14T00:09:44;98778.94;;;0.12;100.00
64078;BME280;51039;49.696;10.808;2024-02-14T00:12:10;98777.44;;;0.19;100.00
64078;BME280;51039;49.696;10.808;2024-02-14T00:14:36;98778.38;;;0.29;100.00
64078;BME280;51039;49.696;10.808;2024-02-14T00:17:02;98785.50;;;0.27;100.00
64078;BME280;51039;49.696;10.808;2024-02-14T00:19:28;98786.88;;;0.31;100.00
64078;BME280;51039;49.696;10.808;2024-02-14T00:21:53;98786.59;;;0.34;100.00
64078;BME280;51039;49.696;10.808;2024-02-14T00:24:19;98789.66;;;0.39;100.00
64078;BME280;51039;49.696;10.808;2024-02-14T00:26:44;98778.66;;;0.36;100.00
64078;BME280;51039;49.696;10.808;2024-02-14T00:29:11;98775.25;;;0.35;100.00
64078;BME280;51039;49.696;10.808;2024-02-14T00:31:36;98772.63;;;0.35;100.00
64078;BME280;51039;49.696;10.808;2024-02-14T00:34:02;98771.88;;;0.45;100.00
64078;BME280;51039;49.696;10.808;2024-02-14T00:36:27;98771.38;;;0.51;100.00
64078;BME280;51039;49.696;10.808;2024-02-14T00:38:52;98775.75;;;0.50;100.00
64078;BME280;51039;49.696;10.808;2024-02-14T00:41:18;98776.88;;;0.57;100.00
64078;BME280;51039;49.696;10.808;2024-02-14T00:43:43;98780.44;;;0.56;100.00
64078;BME280;51039;49.696;10.808;2024-02-14T00:46:08;98776.06;;;0.57;100.00
64078;BME280;51039;49.696;10.808;2024-02-14T00:48:34;98773.19;;;0.60;100.00
64078;BME280;51039;49.696;10.808;2024-02-14T00:50:59;98776.09;;;0.67;100.00
64078;BME280;51039;49.696;10.808;2024-02-14T00:53:24;98778.72;;;0.67;100.00
64078;BME280;51039;49.696;10.808;2024-02-14T00:55:50;98778.72;;;0.67;100.00
64078;BME280;51039;49.696;10.808;2024-02-14T00:58:15;98789.25;;;0.65;100.00
64078;BME280;51039;49.696;10.808;2024-02-14T01:00:40;98783.47;;;0.62;100.00
64078;BME280;51039;49.696;10.808;2024-02-14T01:03:06;98780.50;;;0.66;100.00
64078;BME280;51039;49.696;10.808;2024-02-14T01:05:31;98776.91;;;0.67;100.00
64078;BME280;51039;49.696;10.808;2024-02-14T01:07:57;98782.59;;;0.72;100.00
64078;BME280;51039;49.696;10.808;2024-02-14T01:10:22;98784.25;;;0.73;100.00
64078;BME280;51039;49.696;10.808;2024-02-14T01:12:48;98779.19;;;0.82;100.00
64078;BME280;51039;49.696;10.808;2024-02-14T01:15:13;98777.53;;;0.81;100.00
64078;BME280;51039;49.696;10.808;2024-02-14T01:17:38;98781.13;;;0.80;100.00
64078;BME280;51039;49.696;10.808;2024-02-14T01:20:05;98779.19;;;0.82;100.00
64078;BME280;51039;49.696;10.808;2024-02-14T01:22:32;98778.38;;;0.81;100.00
64078;BME280;51039;49.696;10.808;2024-02-14T01:24:57;98768.66;;;0.83;100.00
64078;BME280;51039;49.696;10.808;2024-02-14T01:27:23;98772.78;;;0.86;100.00
64078;BME280;51039;49.696;10.808;2024-02-14T01:29:49;98779.25;;;0.91;100.00
64078;BME280;51039;49.696;10.808;2024-02-14T01:32:14;98772.25;;;0.92;100.00
64078;BME280;51039;49.696;10.808;2024-02-14T01:34:39;98772.38;;;0.90;100.00
64078;BME280;51039;49.696;10.808;2024-02-14T01:37:07;98766.66;;;0.96;100.00
64078;BME280;51039;49.696;10.808;2024-02-14T01:39:34;98766.38;;;1.00;100.00
64078;BME280;51039;49.696;10.808;2024-02-14T01:42:00;98768.41;;;0.96;100.00
64078;BME280;51039;49.696;10.808;2024-02-14T01:44:26;98762.13;;;0.98;100.00
64078;BME280;51039;49.696;10.808;2024-02-14T01:46:51;98764.31;;;1.03;100.00
64078;BME280;51039;49.696;10.808;2024-02-14T01:49:17;98768.31;;;1.07;100.00
64078;BME280;51039;49.696;10.808;2024-02-14T01:51:44;98769.00;;;1.09;100.00
64078;BME280;51039;49.696;10.808;2024-02-14T01:54:13;98766.97;;;1.13;100.00
64078;BME280;51039;49.696;10.808;2024-02-14T01:56:42;98766.03;;;1.14;100.00
64078;BME280;51039;49.696;10.808;2024-02-14T01:59:09;98765.75;;;1.17;100.00
64078;BME280;51039;49.696;10.808;2024-02-14T02:01:35;98758.75;;;1.17;100.00
64078;BME280;51039;49.696;10.808;2024-02-14T02:14:05;98754.09;;;1.31;100.00
64078;BME280;51039;49.696;10.808;2024-02-14T02:16:31;98746.00;;;1.34;100.00
64078;BME280;51039;49.696;10.808;2024-02-14T02:18:58;98754.09;;;1.31;100.00
64078;BME280;51039;49.696;10.808;2024-02-14T02:21:24;98755.19;;;1.28;100.00
64078;BME280;51039;49.696;10.808;2024-02-14T02:23:49;98737.91;;;1.27;100.00
64078;BME280;51039;49.696;10.808;2024-02-14T02:26:14;98736.94;;;1.28;100.00
64078;BME280;51039;49.696;10.808;2024-02-14T02:28:40;98743.38;;;1.24;100.00
64078;BME280;51039;49.696;10.808;2024-02-14T02:31:05;98730.75;;;1.20;100.00
64078;BME280;51039;49.696;10.808;2024-02-14T02:33:32;98730.59;;;1.21;100.00
64078;BME280;51039;49.696;10.808;2024-02-14T02:35:57;98731.69;;;1.18;100.00
64078;BME280;51039;49.696;10.808;2024-02-14T02:38:22;98729.66;;;1.22;100.00
64078;BME280;51039;49.696;10.808;2024-02-14T02:40:48;98728.13;;;1.20;100.00
64078;BME280;51039;49.696;10.808;2024-02-14T02:43:13;98732.38;;;1.21;100.00
64078;BME280;51039;49.696;10.808;2024-02-14T02:45:38;98728.81;;;1.22;100.00
64078;BME280;51039;49.696;10.808;2024-02-14T02:48:04;98734.72;;;1.24;100.00
64078;BME280;51039;49.696;10.808;2024-02-14T02:50:29;98728.66;;;1.23;100.00
64078;BME280;51039;49.696;10.808;2024-02-14T02:52:55;98732.50;;;1.19;100.00
64078;BME280;51039;49.696;10.808;2024-02-14T02:55:21;98725.78;;;1.16;100.00
64078;BME280;51039;49.696;10.808;2024-02-14T02:57:46;98726.03;;;1.13;100.00
64078;BME280;51039;49.696;10.808;2024-02-14T03:00:12;98728.94;;;1.10;100.00
64078;BME280;51039;49.696;10.808;2024-02-14T03:02:38;98724.00;;;1.17;100.00
64078;BME280;51039;49.696;10.808;2024-02-14T03:05:09;98727.13;;;1.11;100.00
64078;BME280;51039;49.696;10.808;2024-02-14T03:07:35;98729.34;;;1.15;100.00
64078;BME280;51039;49.696;10.808;2024-02-14T03:10:02;98726.88;;;1.14;100.00
64078;BME280;51039;49.696;10.808;2024-02-14T03:12:28;98731.28;;;1.23;100.00
64078;BME280;51039;49.696;10.808;2024-02-14T03:14:55;98727.31;;;1.29;100.00
64078;BME280;51039;49.696;10.808;2024-02-14T03:17:23;98720.88;;;1.33;100.00
64078;BME280;51039;49.696;10.808;2024-02-14T03:19:48;98716.34;;;1.35;100.00
64078;BME280;51039;49.696;10.808;2024-02-14T03:22:16;98711.81;;;1.37;100.00
64078;BME280;51039;49.696;10.808;2024-02-14T03:24:43;98714.13;;;1.40;100.00
64078;BME280;51039;49.696;10.808;2024-02-14T03:27:11;98716.38;;;1.45;100.00
64078;BME280;51039;49.696;10.808;2024-02-14T03:29:37;98722.94;;;1.39;100.00
64078;BME280;51039;49.696;10.808;2024-02-14T03:32:03;98724.44;;;1.42;100.00
64078;BME280;51039;49.696;10.808;2024-02-14T03:34:29;98726.38;;;1.49;100.00
64078;BME280;51039;49.696;10.808;2024-02-14T03:36:56;98726.25;;;1.51;100.00
64078;BME280;51039;49.696;10.808;2024-02-14T03:39:21;98727.19;;;1.50;100.00
64078;BME280;51039;49.696;10.808;2024-02-14T03:41:47;98728.75;;;1.52;100.00
64078;BME280;51039;49.696;10.808;2024-02-14T03:44:13;98720.75;;;1.54;100.00
64078;BME280;51039;49.696;10.808;2024-02-14T03:46:38;98724.19;;;1.54;100.00
64078;BME280;51039;49.696;10.808;2024-02-14T03:49:03;98720.34;;;1.59;100.00
64078;BME280;51039;49.696;10.808;2024-02-14T03:51:28;98729.97;;;1.68;100.00
64078;BME280;51039;49.696;10.808;2024-02-14T03:53:54;98728.44;;;1.75;100.00
64078;BME280;51039;49.696;10.808;2024-02-14T03:56:19;98732.03;;;1.74;100.00
64078;BME280;51039;49.696;10.808;2024-02-14T03:58:45;98729.69;;;1.71;100.00
64078;BME280;51039;49.696;10.808;2024-02-14T04:01:11;98728.63;;;1.73;100.00
64078;BME280;51039;49.696;10.808;2024-02-14T04:03:36;98722.97;;;1.78;100.00
64078;BME280;51039;49.696;10.808;2024-02-14T04:06:02;98724.75;;;1.77;100.00
64078;BME280;51039;49.696;10.808;2024-02-14T04:08:27;98720.78;;;1.83;100.00
64078;BME280;51039;49.696;10.808;2024-02-14T04:10:54;98723.94;;;1.87;100.00
64078;BME280;51039;49.696;10.808;2024-02-14T04:13:20;98727.91;;;1.91;100.00
64078;BME280;51039;49.696;10.808;2024-02-14T04:15:46;98716.78;;;1.89;100.00
64078;BME280;51039;49.696;10.808;2024-02-14T04:18:12;98717.88;;;1.86;100.00
64078;BME280;51039;49.696;10.808;2024-02-14T04:20:39;98713.50;;;1.87;100.00
64078;BME280;51039;49.696;10.808;2024-02-14T04:23:06;98713.34;;;1.88;100.00
64078;BME280;51039;49.696;10.808;2024-02-14T04:25:32;98713.19;;;1.90;100.00
64078;BME280;51039;49.696;10.808;2024-02-14T04:27:58;98727.25;;;1.89;100.00
64078;BME280;51039;49.696;10.808;2024-02-14T04:30:24;98729.56;;;1.92;100.00
64078;BME280;51039;49.696;10.808;2024-02-14T04:32:49;98732.84;;;1.94;100.00
64078;BME280;51039;49.696;10.808;2024-02-14T04:35:16;98743.16;;;1.95;100.00
64078;BME280;51039;49.696;10.808;2024-02-14T04:37:42;98752.78;;;2.05;100.00
64078;BME280;51039;49.696;10.808;2024-02-14T04:40:11;98739.31;;;2.09;100.00
64078;BME280;51039;49.696;10.808;2024-02-14T04:42:37;98743.16;;;2.15;100.00
64078;BME280;51039;49.696;10.808;2024-02-14T04:45:02;98739.47;;;2.18;100.00
64078;BME280;51039;49.696;10.808;2024-02-14T04:47:27;98737.91;;;2.15;100.00
64078;BME280;51039;49.696;10.808;2024-02-14T04:49:54;98741.78;;;2.21;100.00
64078;BME280;51039;49.696;10.808;2024-02-14T04:52:20;98751.81;;;2.25;100.00
64078;BME280;51039;49.696;10.808;2024-02-14T04:54:45;98747.13;;;2.29;100.00
64078;BME280;51039;49.696;10.808;2024-02-14T04:57:10;98749.03;;;2.36;100.00
64078;BME280;51039;49.696;10.808;2024-02-14T04:59:37;98751.22;;;2.41;100.00
64078;BME280;51039;49.696;10.808;2024-02-14T05:02:02;98753.97;;;2.40;100.00
64078;BME280;51039;49.696;10.808;2024-02-14T05:04:27;98749.72;;;2.39;100.00
64078;BME280;51039;49.696;10.808;2024-02-14T05:06:53;98744.88;;;2.44;100.00
64078;BME280;51039;49.696;10.808;2024-02-14T05:09:18;98749.16;;;2.45;100.00
64078;BME280;51039;49.696;10.808;2024-02-14T05:11:43;98752.72;;;2.44;100.00
64078;BME280;51039;49.696;10.808;2024-02-14T05:14:09;98740.66;;;2.43;100.00
64078;BME280;51039;49.696;10.808;2024-02-14T05:16:34;98747.47;;;2.53;100.00
64078;BME280;51039;49.696;10.808;2024-02-14T05:19:00;98738.38;;;2.58;100.00
64078;BME280;51039;49.696;10.808;2024-02-14T05:21:25;98747.34;;;2.55;100.00
64078;BME280;51039;49.696;10.808;2024-02-14T05:23:52;98746.91;;;2.60;100.00
64078;BME280;51039;49.696;10.808;2024-02-14T05:26:17;98741.94;;;2.66;100.00
64078;BME280;51039;49.696;10.808;2024-02-14T05:28:42;98744.03;;;2.63;100.00
64078;BME280;51039;49.696;10.808;2024-02-14T05:31:08;98747.19;;;2.66;100.00
64078;BME280;51039;49.696;10.808;2024-02-14T05:33:33;98744.13;;;2.71;100.00
64078;BME280;51039;49.696;10.808;2024-02-14T05:35:58;98741.91;;;2.76;100.00
64078;BME280;51039;49.696;10.808;2024-02-14T05:38:24;98741.09;;;2.75;100.00
64078;BME280;51039;49.696;10.808;2024-02-14T05:40:49;98735.19;;;2.73;100.00
64078;BME280;51039;49.696;10.808;2024-02-14T05:43:14;98729.09;;;2.73;100.00
64078;BME280;51039;49.696;10.808;2024-02-14T05:45:40;98736.00;;;2.74;100.00
64078;BME280;51039;49.696;10.808;2024-02-14T05:48:06;98741.91;;;2.76;100.00
64078;BME280;51039;49.696;10.808;2024-02-14T05:50:32;98739.16;;;2.78;100.00
64078;BME280;51039;49.696;10.808;2024-02-14T05:52:58;98750.31;;;2.80;100.00
64078;BME280;51039;49.696;10.808;2024-02-14T05:55:23;98739.53;;;2.83;100.00
64078;BME280;51039;49.696;10.808;2024-02-14T05:57:50;98730.72;;;2.84;100.00
64078;BME280;51039;49.696;10.808;2024-02-14T06:00:16;98734.56;;;2.89;100.00
64078;BME280;51039;49.696;10.808;2024-02-14T06:02:43;98738.81;;;2.90;100.00
64078;BME280;51039;49.696;10.808;2024-02-14T06:05:09;98738.41;;;2.95;100.00
64078;BME280;51039;49.696;10.808;2024-02-14T06:07:36;98735.78;;;2.95;100.00
64078;BME280;51039;49.696;10.808;2024-02-14T06:10:02;98737.72;;;2.93;100.00
64078;BME280;51039;49.696;10.808;2024-02-14T06:12:27;98736.88;;;2.92;100.00
64078;BME280;51039;49.696;10.808;2024-02-14T06:14:54;98733.31;;;2.93;100.00
64078;BME280;51039;49.696;10.808;2024-02-14T06:17:19;98738.25;;;2.97;100.00
64078;BME280;51039;49.696;10.808;2024-02-14T06:19:45;98741.00;;;2.95;100.00
64078;BME280;51039;49.696;10.808;2024-02-14T06:22:11;98736.84;;;3.02;100.00
64078;BME280;51039;49.696;10.808;2024-02-14T06:24:36;98748.69;;;3.06;100.00
64078;BME280;51039;49.696;10.808;2024-02-14T06:27:01;98755.31;;;3.01;100.00
64078;BME280;51039;49.696;10.808;2024-02-14T06:29:27;98754.06;;;3.05;100.00
64078;BME280;51039;49.696;10.808;2024-02-14T06:31:52;98762.44;;;3.08;100.00
64078;BME280;51039;49.696;10.808;2024-02-14T06:34:17;98761.72;;;3.16;100.00
64078;BME280;51039;49.696;10.808;2024-02-14T06:36:44;98764.34;;;3.16;100.00
64078;BME280;51039;49.696;10.808;2024-02-14T06:39:11;98763.88;;;3.21;100.00
64078;BME280;51039;49.696;10.808;2024-02-14T06:41:36;98760.06;;;3.15;100.00
64078;BME280;51039;49.696;10.808;2024-02-14T06:44:01;98757.44;;;3.15;100.00
64078;BME280;51039;49.696;10.808;2024-02-14T06:46:27;98761.56;;;3.18;100.00
64078;BME280;51039;49.696;10.808;2024-02-14T06:48:52;98753.00;;;3.25;100.00
64078;BME280;51039;49.696;10.808;2024-02-14T06:51:19;98760.69;;;3.27;100.00
64078;BME280;51039;49.696;10.808;2024-02-14T06:53:45;98761.47;;;3.37;100.00
64078;BME280;51039;49.696;10.808;2024-02-14T06:56:11;98755.38;;;3.37;100.00
64078;BME280;51039;49.696;10.808;2024-02-14T06:58:36;98755.03;;;3.49;100.00
64078;BME280;51039;49.696;10.808;2024-02-14T07:01:01;98756.91;;;3.57;100.00
64078;BME280;51039;49.696;10.808;2024-02-14T07:03:26;98750.19;;;3.72;100.00
64078;BME280;51039;49.696;10.808;2024-02-14T07:05:52;98749.97;;;3.84;100.00
64078;BME280;51039;49.696;10.808;2024-02-14T07:08:17;98745.78;;;3.91;100.00
64078;BME280;51039;49.696;10.808;2024-02-14T07:10:42;98744.50;;;3.95;100.00
64078;BME280;51039;49.696;10.808;2024-02-14T07:13:08;98750.44;;;3.97;100.00
64078;BME280;51039;49.696;10.808;2024-02-14T07:15:33;98742.34;;;4.08;100.00
64078;BME280;51039;49.696;10.808;2024-02-14T07:17:58;98740.91;;;4.14;100.00
64078;BME280;51039;49.696;10.808;2024-02-14T07:20:24;98743.81;;;4.11;100.00
64078;BME280;51039;49.696;10.808;2024-02-14T07:22:52;98745.97;;;4.16;100.00
64078;BME280;51039;49.696;10.808;2024-02-14T07:25:18;98742.09;;;4.20;100.00
64078;BME280;51039;49.696;10.808;2024-02-14T07:27:44;98753.47;;;4.55;100.00
64078;BME280;51039;49.696;10.808;2024-02-14T07:30:11;98750.41;;;4.67;100.00
64078;BME280;51039;49.696;10.808;2024-02-14T07:32:37;98758.75;;;4.89;100.00
64078;BME280;51039;49.696;10.808;2024-02-14T07:35:02;98751.75;;;5.06;100.00
64078;BME280;51039;49.696;10.808;2024-02-14T07:37:27;98744.44;;;5.18;100.00
64078;BME280;51039;49.696;10.808;2024-02-14T07:39:53;98753.69;;;5.38;100.00
64078;BME280;51039;49.696;10.808;2024-02-14T07:42:18;98746.47;;;5.40;100.00
64078;BME280;51039;49.696;10.808;2024-02-14T07:44:43;98756.19;;;5.56;100.00
64078;BME280;51039;49.696;10.808;2024-02-14T07:47:09;98757.84;;;5.57;100.00
64078;BME280;51039;49.696;10.808;2024-02-14T07:49:34;98767.41;;;5.66;100.00
64078;BME280;51039;49.696;10.808;2024-02-14T07:51:59;98761.63;;;5.63;100.00
64078;BME280;51039;49.696;10.808;2024-02-14T07:54:25;98758.06;;;5.80;100.00
64078;BME280;51039;49.696;10.808;2024-02-14T07:56:50;98754.19;;;6.01;100.00
64078;BME280;51039;49.696;10.808;2024-02-14T07:59:16;98761.41;;;5.99;100.00
64078;BME280;51039;49.696;10.808;2024-02-14T08:01:41;98762.34;;;5.89;100.00
64078;BME280;51039;49.696;10.808;2024-02-14T08:04:08;98770.22;;;5.81;100.00
64078;BME280;51039;49.696;10.808;2024-02-14T08:06:33;98775.88;;;5.52;100.00
64078;BME280;51039;49.696;10.808;2024-02-14T08:08:59;98776.91;;;5.59;100.00
64078;BME280;51039;49.696;10.808;2024-02-14T08:11:27;98781.28;;;5.42;100.00
64078;BME280;51039;49.696;10.808;2024-02-14T08:13:52;98790.19;;;5.58;100.00
64078;BME280;51039;49.696;10.808;2024-02-14T08:16:18;98777.25;;;5.64;100.00
64078;BME280;51039;49.696;10.808;2024-02-14T08:18:43;98779.06;;;5.72;100.00
64078;BME280;51039;49.696;10.808;2024-02-14T08:21:09;98778.59;;;5.77;100.00
64078;BME280;51039;49.696;10.808;2024-02-14T08:23:35;98781.38;;;5.75;100.00
64078;BME280;51039;49.696;10.808;2024-02-14T08:26:03;98781.22;;;5.77;100.00
64078;BME280;51039;49.696;10.808;2024-02-14T08:28:35;98795.38;;;5.84;100.00
64078;BME280;51039;49.696;10.808;2024-02-14T08:31:01;98790.25;;;5.82;100.00
64078;BME280;51039;49.696;10.808;2024-02-14T08:33:26;98788.94;;;5.86;100.00
64078;BME280;51039;49.696;10.808;2024-02-14T08:35:51;98795.22;;;5.94;100.00
64078;BME280;51039;49.696;10.808;2024-02-14T08:38:18;98790.00;;;6.10;100.00
64078;BME280;51039;49.696;10.808;2024-02-14T08:40:45;98796.09;;;6.35;100.00
64078;BME280;51039;49.696;10.808;2024-02-14T08:43:10;98798.88;;;6.42;100.00
64078;BME280;51039;49.696;10.808;2024-02-14T08:45:36;98795.91;;;6.37;100.00
64078;BME280;51039;49.696;10.808;2024-02-14T08:48:02;98792.63;;;6.35;100.00
64078;BME280;51039;49.696;10.808;2024-02-14T08:50:28;98793.28;;;6.28;100.00
64078;BME280;51039;49.696;10.808;2024-02-14T08:52:55;98789.84;;;6.20;100.00
64078;BME280;51039;49.696;10.808;2024-02-14T08:55:20;98787.38;;;6.26;100.00
64078;BME280;51039;49.696;10.808;2024-02-14T08:57:46;98789.66;;;6.21;100.00
64078;BME280;51039;49.696;10.808;2024-02-14T09:00:12;98785.75;;;6.34;100.00
64078;BME280;51039;49.696;10.808;2024-02-14T09:02:40;98783.75;;;6.44;100.00
64078;BME280;51039;49.696;10.808;2024-02-14T09:05:06;98790.94;;;6.83;100.00
64078;BME280;51039;49.696;10.808;2024-02-14T09:07:31;98788.69;;;7.19;100.00
64078;BME280;51039;49.696;10.808;2024-02-14T09:09:58;98780.34;;;7.78;100.00
64078;BME280;51039;49.696;10.808;2024-02-14T09:12:24;98780.41;;;8.16;100.00
64078;BME280;51039;49.696;10.808;2024-02-14T09:14:49;98773.63;;;8.45;100.00
64078;BME280;51039;49.696;10.808;2024-02-14T09:17:15;98773.09;;;8.64;96.74
64078;BME280;51039;49.696;10.808;2024-02-14T09:19:40;98780.13;;;8.87;95.93
64078;BME280;51039;49.696;10.808;2024-02-14T09:22:06;98779.66;;;8.69;98.52
64078;BME280;51039;49.696;10.808;2024-02-14T09:24:31;98775.44;;;8.59;95.62
64078;BME280;51039;49.696;10.808;2024-02-14T09:26:57;98777.19;;;8.67;97.70
64078;BME280;51039;49.696;10.808;2024-02-14T09:29:22;98774.66;;;8.89;95.73
64078;BME280;51039;49.696;10.808;2024-02-14T09:31:49;98774.66;;;8.74;94.61
64078;BME280;51039;49.696;10.808;2024-02-14T09:34:16;98775.81;;;8.71;95.09
64078;BME280;51039;49.696;10.808;2024-02-14T09:36:43;98774.28;;;8.77;94.15
64078;BME280;51039;49.696;10.808;2024-02-14T09:39:08;98782.41;;;9.05;93.41
64078;BME280;51039;49.696;10.808;2024-02-14T09:41:37;98778.88;;;9.13;94.16
64078;BME280;51039;49.696;10.808;2024-02-14T09:44:08;98784.69;;;9.08;93.98
64078;BME280;51039;49.696;10.808;2024-02-14T09:46:34;98789.13;;;8.93;93.42
64078;BME280;51039;49.696;10.808;2024-02-14T09:49:02;98790.03;;;8.70;95.20
64078;BME280;51039;49.696;10.808;2024-02-14T09:51:29;98782.88;;;8.94;99.38
64078;BME280;51039;49.696;10.808;2024-02-14T09:53:55;98786.50;;;8.78;97.38
64078;BME280;51039;49.696;10.808;2024-02-14T09:56:21;98798.72;;;9.09;95.46
64078;BME280;51039;49.696;10.808;2024-02-14T09:58:49;98804.09;;;9.30;94.79
64078;BME280;51039;49.696;10.808;2024-02-14T10:01:21;98807.59;;;9.67;93.77
64078;BME280;51039;49.696;10.808;2024-02-14T10:03:48;98813.50;;;9.84;90.82
64078;BME280;51039;49.696;10.808;2024-02-14T10:06:17;98807.25;;;9.70;91.39
64078;BME280;51039;49.696;10.808;2024-02-14T10:08:45;98808.66;;;9.88;89.83
64078;BME280;51039;49.696;10.808;2024-02-14T10:11:14;98807.59;;;9.67;91.09
64078;BME280;51039;49.696;10.808;2024-02-14T10:13:40;98806.56;;;9.83;88.79
64078;BME280;51039;49.696;10.808;2024-02-14T10:16:06;98803.03;;;9.76;89.61
64078;BME280;51039;49.696;10.808;2024-02-14T10:18:33;98806.94;;;9.80;88.82
64078;BME280;51039;49.696;10.808;2024-02-14T10:20:58;98804.44;;;9.93;88.50
64078;BME280;51039;49.696;10.808;2024-02-14T10:23:24;98805.47;;;9.77;90.14
64078;BME280;51039;49.696;10.808;2024-02-14T10:25:50;98807.44;;;9.90;91.23
64078;BME280;51039;49.696;10.808;2024-02-14T10:28:17;98802.72;;;9.86;88.95
64078;BME280;51039;49.696;10.808;2024-02-14T10:30:45;98812.56;;;9.92;89.72
64078;BME280;51039;49.696;10.808;2024-02-14T10:33:11;98806.94;;;9.80;89.69
64078;BME280;51039;49.696;10.808;2024-02-14T10:35:36;98805.81;;;9.53;89.16
64078;BME280;51039;49.696;10.808;2024-02-14T10:38:06;98801.81;;;9.42;93.10
64078;BME280;51039;49.696;10.808;2024-02-14T10:40:34;98811.22;;;9.30;94.78
64078;BME280;51039;49.696;10.808;2024-02-14T10:43:00;98808.56;;;9.00;95.72
64078;BME280;51039;49.696;10.808;2024-02-14T10:45:26;98801.00;;;8.97;96.40
64078;BME280;51039;49.696;10.808;2024-02-14T10:47:52;98803.44;;;8.98;96.28
64078;BME280;51039;49.696;10.808;2024-02-14T10:50:18;98807.47;;;8.94;95.83
64078;BME280;51039;49.696;10.808;2024-02-14T10:52:46;98806.72;;;9.00;96.97
64078;BME280;51039;49.696;10.808;2024-02-14T10:55:13;98809.13;;;8.95;98.17
64078;BME280;51039;49.696;10.808;2024-02-14T10:57:42;98801.81;;;8.97;98.72
64078;BME280;51039;49.696;10.808;2024-02-14T11:00:09;98806.47;;;8.95;99.90
64078;BME280;51039;49.696;10.808;2024-02-14T11:02:38;98798.72;;;8.94;100.00
64078;BME280;51039;49.696;10.808;2024-02-14T11:05:04;98796.22;;;8.77;100.00
64078;BME280;51039;49.696;10.808;2024-02-14T11:07:31;98799.34;;;8.81;100.00
64078;BME280;51039;49.696;10.808;2024-02-14T11:12:32;98793.16;;;8.74;100.00
64078;BME280;51039;49.696;10.808;2024-02-14T11:15:01;98792.50;;;8.72;100.00
64078;BME280;51039;49.696;10.808;2024-02-14T11:17:43;98784.22;;;8.75;100.00
64078;BME280;51039;49.696;10.808;2024-02-14T11:20:18;98782.84;;;8.79;100.00
64078;BME280;51039;49.696;10.808;2024-02-14T11:22:54;98792.34;;;8.88;100.00
64078;BME280;51039;49.696;10.808;2024-02-14T11:25:28;98797.06;;;9.08;100.00
64078;BME280;51039;49.696;10.808;2024-02-14T11:27:58;98787.03;;;9.18;100.00
64078;BME280;51039;49.696;10.808;2024-02-14T11:30:31;98778.81;;;9.42;100.00
64078;BME280;51039;49.696;10.808;2024-02-14T11:35:49;98782.56;;;10.06;100.00
64078;BME280;51039;49.696;10.808;2024-02-14T11:38:19;98782.25;;;10.16;99.12
64078;BME280;51039;49.696;10.808;2024-02-14T11:40:45;98791.75;;;10.10;98.70
64078;BME280;51039;49.696;10.808;2024-02-14T11:43:18;98793.66;;;9.95;99.82
64078;BME280;51039;49.696;10.808;2024-02-14T11:45:48;98801.56;;;9.73;100.00
64078;BME280;51039;49.696;10.808;2024-02-14T11:48:17;98798.38;;;9.78;100.00
64078;BME280;51039;49.696;10.808;2024-02-14T11:50:44;98795.56;;;9.65;100.00
64078;BME280;51039;49.696;10.808;2024-02-14T11:53:10;98797.47;;;9.71;100.00
64078;BME280;51039;49.696;10.808;2024-02-14T11:55:37;98795.19;;;9.68;100.00
64078;BME280;51039;49.696;10.808;2024-02-14T11:58:06;98792.03;;;9.57;100.00
64078;BME280;51039;49.696;10.808;2024-02-14T12:00:42;98803.56;;;9.71;100.00
64078;BME280;51039;49.696;10.808;2024-02-14T12:03:10;98802.31;;;9.67;100.00
64078;BME280;51039;49.696;10.808;2024-02-14T12:05:37;98799.59;;;9.60;100.00
64078;BME280;51039;49.696;10.808;2024-02-14T12:08:06;98796.66;;;9.70;100.00
64078;BME280;51039;49.696;10.808;2024-02-14T12:10:32;98793.75;;;9.65;100.00
64078;BME280;51039;49.696;10.808;2024-02-14T12:13:06;98792.84;;;9.58;100.00
64078;BME280;51039;49.696;10.808;2024-02-14T12:15:39;98787.53;;;9.58;100.00
64078;BME280;51039;49.696;10.808;2024-02-14T12:18:09;98794.38;;;9.67;100.00
64078;BME280;51039;49.696;10.808;2024-02-14T12:20:35;98793.38;;;9.68;100.00
64078;BME280;51039;49.696;10.808;2024-02-14T12:23:02;98797.47;;;9.71;100.00
64078;BME280;51039;49.696;10.808;2024-02-14T12:25:27;98800.72;;;9.88;100.00
64078;BME280;51039;49.696;10.808;2024-02-14T12:27:53;98794.88;;;9.77;100.00
64078;BME280;51039;49.696;10.808;2024-02-14T12:30:22;98803.91;;;9.83;100.00
64078;BME280;51039;49.696;10.808;2024-02-14T12:33:00;98797.63;;;9.84;100.00
64078;BME280;51039;49.696;10.808;2024-02-14T12:35:33;98800.38;;;9.76;100.00
64078;BME280;51039;49.696;10.808;2024-02-14T12:38:00;98806.00;;;9.88;100.00
64078;BME280;51039;49.696;10.808;2024-02-14T12:40:26;98809.94;;;9.77;100.00
64078;BME280;51039;49.696;10.808;2024-02-14T12:42:51;98799.53;;;9.75;100.00
64078;BME280;51039;49.696;10.808;2024-02-14T12:45:16;98801.34;;;9.90;100.00
64078;BME280;51039;49.696;10.808;2024-02-14T12:47:42;98800.72;;;10.09;100.00
64078;BME280;51039;49.696;10.808;2024-02-14T12:50:08;98794.63;;;10.09;100.00
64078;BME280;51039;49.696;10.808;2024-02-14T12:52:34;98799.78;;;10.17;100.00
64078;BME280;51039;49.696;10.808;2024-02-14T12:55:00;98799.28;;;10.28;100.00
64078;BME280;51039;49.696;10.808;2024-02-14T12:57:25;98801.94;;;10.28;100.00
64078;BME280;51039;49.696;10.808;2024-02-14T12:59:50;98800.47;;;10.26;100.00